Port Angeles, WA

4:09 PM PDT on October 25, 2014 (GMT -0700)
Whidbey Island Naval Air Station | Change Station
CLOSE
Current Station
Airport
Location: Whidbey Island,
Elevation: 46 ft
Nearby Weather Stations

Elev 46 ft 48.35 °N, 122.66 °W | Updated 13 minutes ago

Rain
Rain
57 °F
Feels Like 57 °F
N
9
Wind Variable Wind from East

Today
High -- | Low -- °F
--% Chance of Precip.
Yesterday
High -- | Low -- °F
Precip. -- in
7:48 AM 6:06 PM
Waxing Crescent, 5% visible
Pressure 29.30 in
Visibility 6.0 miles
Clouds Scattered Clouds 4000 ft
Mostly Cloudy 6000 ft
Overcast 7000 ft
Dew Point 53 °F
Humidity 87%
Rainfall 0.19 in
Snow Depth 0 in
UV 0 out of 12
Pollen .40 out of 12
PM2.5 Good
Flu Activity Sporadic
METAR KNUW 252256Z 09008KT 6SM RA BR SCT040 BKN060 OVC070 14/12 A2929 RMK AO2 SLP921 P0010 T01390117 $

More Conditions Fewer Conditions

Pressure 29.30 in
Visibility 6.0 miles
Clouds Scattered Clouds 4000 ft
Mostly Cloudy 6000 ft
Overcast 7000 ft
Dew Point 53 °F
Humidity 87%
Rainfall 0.19 in
Snow Depth 0 in
UV 0 out of 12
Pollen .40 out of 12
PM2.5 Good
Flu Activity Sporadic
METAR KNUW 252256Z 09008KT 6SM RA BR SCT040 BKN060 OVC070 14/12 A2929 RMK AO2 SLP921 P0010 T01390117 $

More Conditions Fewer Conditions

10-Day Weather Forecast

Almanac

Astronomy

Oct. 25, 2014 Rise Set
Actual Time 7:48 AM PDT 6:06 PM PDT
Civil Twilight 7:16 AM PDT 6:38 PM PDT
Nautical Twilight 6:40 AM PDT 7:15 PM PDT
Astronomical Twilight 6:04 AM PDT 7:50 PM PDT
Moon 9:39 AM PDT 7:27 PM PDT
Length of Visible Light 11h 22m
Length of Day
10h 18m
Tomorrow will be 3m 14s shorter.
Waxing Crescent, 5% of the Moon is Illuminated
Today
Waxing Crescent
Oct 30
First Quarter
Nov 6
Full
Nov 14
Last Quarter
Nov 22
New

Today's Extremes

State Highs State Lows

Community

WunderPhotos

Upload Photos

1,765,021 photos uploaded!

Nearby

Air Quality

  Air Quality AQ Index Pollutant
Yesterday Good
PM2.5
Current Good
PM2.5

Snow Depth

Station Depth Elevation
Waterhole 0 in 5000 ft
Dungeness 0 in 4100 ft
Alpine Meadows 0 in 3500 ft
Elbow Lake 0 in 3200 ft
Skookum Creek 0 in 3920 ft

Earthquake Activity

City Distance Mag. Time & Date
Birch Bay, Washington 62 miles 2.8 3:02 AM PDT
2014-10-24
Minimum magnitude displayed is 2.5.

Coastal Water Temperatures

Place Temperature
Port Angeles, WA 57.9 °F
Friday Harbor, WA 51.1 °F
Port Townsend, WA 52.0 °F
La Push, WA 57.9 °F

Nearby Weather Stations